Time;durP1;ratioP1;P1;durP2;ratioP2;P2;SDS_P1;SDS_P2;PMS_P1;PMS_P2;Temp;Humidity;BMP_temperature;BMP_pressure;BME280_temperature;BME280_humidity;BME280_pressure;Samples;Min_cycle;Max_cycle;Signal;HPM_P1;HPM_P2
2023/12/17 00:01:28;;;;;;;0.03;0.03;;;;;;;12.72;71.75;103823.47;5023587;28;20029;-81
2023/12/17 00:03:55;;;;;;;0.10;0.10;;;;;;;12.76;71.63;103820.00;5030438;28;20029;-83
2023/12/17 00:06:21;;;;;;;0.45;0.45;;;;;;;12.72;71.92;103810.16;5026972;28;20044;-83
2023/12/17 00:08:48;;;;;;;0.10;0.10;;;;;;;12.71;71.60;103813.69;5030350;28;20574;-81
2023/12/17 00:11:14;;;;;;;0.10;0.10;;;;;;;12.64;71.33;103809.16;5023708;28;20022;-82
2023/12/17 00:13:41;;;;;;;0.13;0.13;;;;;;;12.80;70.97;103811.22;5030623;28;20373;-81
2023/12/17 00:16:08;;;;;;;0.10;0.10;;;;;;;12.75;70.95;103807.59;5035559;28;20030;-82
2023/12/17 00:18:34;;;;;;;0.10;0.10;;;;;;;12.90;71.40;103810.50;5027688;28;20048;-80
2023/12/17 00:21:00;;;;;;;0.10;0.10;;;;;;;12.76;71.24;103796.97;5029235;28;20032;-80
2023/12/17 00:23:26;;;;;;;0.10;0.10;;;;;;;12.86;70.65;103798.03;5023274;28;20034;-83
2023/12/17 00:25:53;;;;;;;0.28;0.28;;;;;;;12.88;70.85;103787.41;5017291;28;20034;-83
2023/12/17 00:28:19;;;;;;;0.10;0.10;;;;;;;12.84;70.62;103796.22;5013115;28;20041;-84
2023/12/17 00:30:45;;;;;;;0.10;0.10;;;;;;;12.85;70.65;103796.22;5033080;28;20021;-83
2023/12/17 00:33:12;;;;;;;0.10;0.10;;;;;;;12.84;70.44;103798.88;5014252;28;20041;-82
2023/12/17 00:35:38;;;;;;;0.10;0.10;;;;;;;12.70;70.28;103801.28;5017788;28;20026;-83
2023/12/17 00:38:04;;;;;;;0.47;0.47;;;;;;;12.81;70.54;103806.78;5012495;28;20058;-83
2023/12/17 00:40:30;;;;;;;0.65;0.65;;;;;;;12.87;70.10;103801.56;5023741;28;20095;-82
2023/12/17 00:42:57;;;;;;;0.10;0.10;;;;;;;12.71;70.86;103800.38;5019878;28;20030;-83
2023/12/17 00:45:23;;;;;;;0.10;0.10;;;;;;;12.73;70.75;103788.03;5024267;28;20022;-83
2023/12/17 00:47:49;;;;;;;0.17;0.17;;;;;;;12.87;70.51;103791.84;5019151;28;20048;-84
2023/12/17 00:50:15;;;;;;;0.40;0.40;;;;;;;12.79;70.11;103799.66;5026419;28;20551;-82
2023/12/17 00:52:42;;;;;;;0.10;0.10;;;;;;;12.82;70.82;103790.84;5024014;28;20057;-82
2023/12/17 00:55:08;;;;;;;0.10;0.10;;;;;;;12.83;70.59;103792.63;5023928;28;20080;-81
2023/12/17 00:57:35;;;;;;;0.10;0.10;;;;;;;12.79;70.68;103783.69;5016389;28;20122;-84
2023/12/17 01:00:03;;;;;;;0.10;0.10;;;;;;;12.83;70.25;103794.41;5024135;28;20052;-81
2023/12/17 01:02:29;;;;;;;0.10;0.10;;;;;;;12.82;70.39;103788.19;5023086;28;20076;-81
2023/12/17 01:04:55;;;;;;;0.10;0.10;;;;;;;12.83;69.96;103776.66;5029357;28;20485;-80
2023/12/17 01:07:21;;;;;;;0.10;0.10;;;;;;;12.86;70.07;103784.72;5027389;28;20026;-80
2023/12/17 01:09:48;;;;;;;0.10;0.10;;;;;;;12.84;70.22;103782.91;5035457;28;20037;-79
2023/12/17 01:12:14;;;;;;;0.05;0.05;;;;;;;12.82;70.20;103784.63;5031236;28;20037;-81
2023/12/17 01:14:41;;;;;;;0.10;0.10;;;;;;;12.84;70.19;103786.44;5030695;28;20022;-82
2023/12/17 01:17:07;;;;;;;0.40;0.40;;;;;;;12.82;69.63;103777.53;5031678;28;20037;-82
2023/12/17 01:19:40;;;;;;;0.10;0.10;;;;;;;12.88;69.50;103767.00;5033851;28;20041;-81
2023/12/17 01:22:06;;;;;;;0.10;0.10;;;;;;;12.80;69.23;103768.66;5037352;28;20100;-82
2023/12/17 01:24:35;;;;;;;0.57;0.57;;;;;;;12.76;69.19;103758.78;5032957;28;20030;-82
2023/12/17 01:27:01;;;;;;;0.13;0.13;;;;;;;12.75;69.86;103765.00;5023483;28;20034;-83
2023/12/17 01:29:27;;;;;;;0.10;0.10;;;;;;;12.74;69.53;103763.22;5032533;28;20060;-82
2023/12/17 01:31:54;;;;;;;1.27;0.45;;;;;;;12.78;69.42;103746.44;5023819;28;20034;-83
2023/12/17 01:34:20;;;;;;;0.63;0.63;;;;;;;12.84;69.27;103738.56;5031496;28;20029;-80
2023/12/17 01:36:47;;;;;;;0.15;0.15;;;;;;;12.69;69.32;103738.31;5031601;28;20025;-81
2023/12/17 01:39:13;;;;;;;0.10;0.10;;;;;;;12.75;68.73;103749.06;5027880;28;20026;-82
2023/12/17 01:41:39;;;;;;;0.30;0.30;;;;;;;12.77;69.07;103749.94;5030792;28;20041;-81
2023/12/17 01:44:05;;;;;;;0.10;0.10;;;;;;;12.82;68.57;103745.59;5032674;28;20014;-82
2023/12/17 01:46:32;;;;;;;0.17;0.17;;;;;;;12.79;68.11;103761.53;5033512;28;20042;-82
2023/12/17 01:48:59;;;;;;;0.10;0.10;;;;;;;12.82;68.14;103755.38;5019871;28;20041;-82
2023/12/17 01:51:26;;;;;;;1.10;1.02;;;;;;;12.81;68.27;103765.13;5024051;28;20029;-82
2023/12/17 01:53:53;;;;;;;1.02;1.00;;;;;;;12.81;67.63;103766.88;5030539;28;20026;-82
2023/12/17 01:56:19;;;;;;;0.10;0.10;;;;;;;12.79;68.45;103761.53;5036188;28;20041;-82
2023/12/17 01:58:48;;;;;;;0.10;0.10;;;;;;;12.78;67.97;103765.06;5027042;28;20026;-82
2023/12/17 02:01:14;;;;;;;0.10;0.10;;;;;;;12.85;68.00;103766.97;5030236;28;20052;-82
2023/12/17 02:03:40;;;;;;;0.10;0.10;;;;;;;12.90;67.73;103769.72;5030723;28;20030;-82
2023/12/17 02:06:09;;;;;;;0.10;0.10;;;;;;;12.87;68.02;103778.53;5028806;28;20040;-83
2023/12/17 02:08:36;;;;;;;0.10;0.10;;;;;;;12.83;67.63;103774.00;5023545;28;20060;-83
2023/12/17 02:11:05;;;;;;;0.10;0.10;;;;;;;12.92;67.48;103776.84;5023417;28;20053;-83
2023/12/17 02:13:31;;;;;;;0.10;0.10;;;;;;;12.83;67.53;103774.00;5026897;28;20037;-83
2023/12/17 02:15:57;;;;;;;0.10;0.10;;;;;;;12.90;67.39;103781.25;5025647;28;20115;-82
2023/12/17 02:18:23;;;;;;;0.10;0.10;;;;;;;12.84;67.62;103790.88;5026168;28;20033;-83
2023/12/17 02:20:50;;;;;;;0.75;0.75;;;;;;;12.87;67.48;103781.19;5024534;28;20029;-82
2023/12/17 02:23:17;;;;;;;0.10;0.10;;;;;;;12.86;67.47;103795.38;5023255;28;20041;-82
2023/12/17 02:25:43;;;;;;;0.20;0.20;;;;;;;12.82;67.75;103793.50;5025422;28;20440;-82
2023/12/17 02:28:09;;;;;;;0.17;0.17;;;;;;;12.85;67.65;103784.69;5031077;28;20060;-82
2023/12/17 02:30:36;;;;;;;0.10;0.10;;;;;;;12.93;67.42;103786.63;5027602;28;20030;-81
2023/12/17 02:33:02;;;;;;;0.10;0.10;;;;;;;12.85;67.49;103788.25;5027908;28;20034;-80
2023/12/17 02:35:28;;;;;;;0.10;0.10;;;;;;;12.78;67.78;103781.94;5028401;28;20025;-81
2023/12/17 02:37:55;;;;;;;0.17;0.17;;;;;;;12.85;67.87;103782.94;5030165;28;20036;-81
2023/12/17 02:40:21;;;;;;;0.10;0.10;;;;;;;12.89;67.91;103781.22;5026641;28;20488;-82
2023/12/17 02:42:47;;;;;;;0.10;0.10;;;;;;;12.86;68.35;103784.72;5025999;28;20033;-82
2023/12/17 02:45:13;;;;;;;0.10;0.10;;;;;;;12.79;68.46;103788.13;5026529;28;20080;-83
2023/12/17 02:47:39;;;;;;;0.10;0.10;;;;;;;12.79;69.19;103788.13;5026838;28;20558;-83
2023/12/17 02:50:06;;;;;;;0.10;0.10;;;;;;;12.78;69.42;103783.69;5020791;28;20129;-84
2023/12/17 02:52:39;;;;;;;0.10;0.10;;;;;;;12.75;69.51;103770.34;5026404;28;20030;-83
2023/12/17 02:55:05;;;;;;;3.22;2.92;;;;;;;12.68;69.93;103769.31;5023447;28;20019;-81
2023/12/17 02:57:32;;;;;;;6.07;0.35;;;;;;;12.75;69.56;103765.00;5024097;28;20025;-82
2023/12/17 02:59:58;;;;;;;0.10;0.10;;;;;;;12.69;69.60;103764.91;5023416;28;20109;-82
2023/12/17 03:02:24;;;;;;;0.17;0.17;;;;;;;12.60;70.19;103761.19;5025951;28;20094;-82
2023/12/17 03:04:50;;;;;;;0.10;0.10;;;;;;;12.64;69.56;103755.94;5025123;28;20109;-82
2023/12/17 03:07:20;;;;;;;0.10;0.10;;;;;;;12.67;70.08;103756.00;5027581;28;20068;-82
2023/12/17 03:09:47;;;;;;;0.75;0.75;;;;;;;12.64;70.21;103759.50;5023744;28;20044;-81
2023/12/17 03:12:15;;;;;;;0.10;0.10;;;;;;;12.61;70.07;103762.06;5028931;28;20030;-82
2023/12/17 03:14:41;;;;;;;0.10;0.10;;;;;;;12.60;69.98;103755.88;5033982;28;20026;-83
2023/12/17 03:17:07;;;;;;;0.10;0.10;;;;;;;12.62;70.01;103761.22;5028654;28;20090;-83
2023/12/17 03:19:36;;;;;;;0.10;0.10;;;;;;;12.66;69.90;103756.84;5028116;28;20034;-82
2023/12/17 03:22:05;;;;;;;0.20;0.20;;;;;;;12.53;70.25;103759.28;5027205;28;20065;-83
2023/12/17 03:24:31;;;;;;;0.10;0.10;;;;;;;12.50;70.71;103759.25;5026016;28;20097;-82
2023/12/17 03:26:58;;;;;;;0.10;0.10;;;;;;;12.40;71.13;103757.25;5025715;28;20033;-83
2023/12/17 03:29:24;;;;;;;0.10;0.10;;;;;;;12.49;70.88;103740.59;5026670;28;20134;-82
2023/12/17 03:31:50;;;;;;;0.10;0.10;;;;;;;12.44;71.28;103751.16;5025064;28;20057;-82
2023/12/17 03:34:17;;;;;;;0.20;0.20;;;;;;;12.53;70.08;103748.66;5024811;28;20034;-82
2023/12/17 03:36:43;;;;;;;0.38;0.38;;;;;;;12.45;70.80;103745.84;5023087;28;20036;-82
2023/12/17 03:39:09;;;;;;;0.10;0.10;;;;;;;12.51;70.71;103736.19;5023431;28;20037;-82
2023/12/17 03:41:35;;;;;;;0.38;0.38;;;;;;;12.49;70.80;103736.16;5025100;28;20037;-83
2023/12/17 03:44:02;;;;;;;0.10;0.10;;;;;;;12.53;70.61;103745.09;5024250;28;20116;-83
2023/12/17 03:46:28;;;;;;;0.17;0.17;;;;;;;12.48;70.78;103750.31;5028370;28;20045;-81
2023/12/17 03:48:54;;;;;;;7.68;2.22;;;;;;;12.52;71.02;103733.56;5020915;28;20489;-81
2023/12/17 03:51:20;;;;;;;0.10;0.10;;;;;;;12.42;71.31;103736.91;5025201;28;20041;-82
2023/12/17 03:53:47;;;;;;;0.03;0.03;;;;;;;12.46;70.88;103730.78;5033834;28;20057;-81
2023/12/17 03:56:15;;;;;;;0.10;0.10;;;;;;;12.50;71.05;103722.00;5029244;28;20041;-82
2023/12/17 03:58:42;;;;;;;0.10;0.10;;;;;;;12.48;70.99;103723.75;5030184;28;20034;-82
2023/12/17 04:01:08;;;;;;;0.10;0.10;;;;;;;12.49;70.71;103711.34;5022795;28;20044;-82
2023/12/17 04:03:36;;;;;;;0.17;0.17;;;;;;;12.53;70.73;103722.06;5022940;28;20029;-82
2023/12/17 04:06:06;;;;;;;0.10;0.10;;;;;;;12.49;70.90;103714.00;5025874;28;20072;-82
2023/12/17 04:08:32;;;;;;;0.10;0.10;;;;;;;12.43;71.20;103715.66;5023070;28;20034;-82
2023/12/17 04:10:58;;;;;;;1.88;0.52;;;;;;;12.40;71.17;103705.00;5024125;28;20030;-82
2023/12/17 04:13:25;;;;;;;0.20;0.20;;;;;;;12.42;71.15;103719.22;5025137;28;20405;-82
2023/12/17 04:15:51;;;;;;;0.10;0.10;;;;;;;12.38;71.15;103727.09;5026014;28;20021;-83
2023/12/17 04:18:17;;;;;;;0.52;0.52;;;;;;;12.36;72.11;103726.16;5026910;28;20026;-82
2023/12/17 04:20:43;;;;;;;0.20;0.20;;;;;;;12.38;71.61;103717.34;5029470;28;20037;-82
2023/12/17 04:23:10;;;;;;;0.93;0.85;;;;;;;12.30;71.37;103729.63;5022784;28;20033;-82
2023/12/17 04:25:36;;;;;;;0.10;0.10;;;;;;;12.32;71.20;103722.56;5024077;28;20025;-83
2023/12/17 04:28:03;;;;;;;0.25;0.25;;;;;;;12.35;71.30;103727.03;5020662;28;20041;-82
2023/12/17 04:30:29;;;;;;;0.65;0.65;;;;;;;12.28;71.68;103716.28;5018843;28;20038;-81
2023/12/17 04:32:55;;;;;;;0.20;0.20;;;;;;;12.28;71.58;103710.97;5023408;28;20104;-82
2023/12/17 04:35:22;;;;;;;0.40;0.40;;;;;;;12.11;71.57;103704.44;5025425;28;20029;-82
2023/12/17 04:37:48;;;;;;;0.43;0.43;;;;;;;12.21;71.65;103706.41;5021738;28;20082;-82
2023/12/17 04:40:14;;;;;;;0.05;0.05;;;;;;;12.18;71.29;103702.81;5029409;28;20030;-82
2023/12/17 04:42:41;;;;;;;0.10;0.10;;;;;;;12.20;71.95;103707.28;5023456;28;20022;-82
2023/12/17 04:45:07;;;;;;;0.10;0.10;;;;;;;12.16;71.63;103716.03;5022357;28;20215;-81
2023/12/17 04:47:34;;;;;;;0.10;0.10;;;;;;;12.09;71.80;103709.72;5021110;28;20037;-82
2023/12/17 04:50:01;;;;;;;8.40;0.75;;;;;;;12.18;71.90;103705.47;5019676;28;20057;-83
2023/12/17 04:52:27;;;;;;;0.10;0.10;;;;;;;12.15;71.53;103703.66;5024405;28;20045;-82
2023/12/17 04:54:53;;;;;;;1.15;1.15;;;;;;;12.16;71.68;103708.06;5018642;28;20022;-82
2023/12/17 04:57:19;;;;;;;6.25;0.73;;;;;;;12.14;71.69;103707.16;5020106;28;20049;-81
2023/12/17 04:59:46;;;;;;;1.55;1.55;;;;;;;12.08;71.80;103701.72;5020567;28;20084;-82
2023/12/17 05:02:12;;;;;;;0.15;0.15;;;;;;;12.17;71.62;103698.34;5022469;28;20040;-81
2023/12/17 05:04:41;;;;;;;0.10;0.10;;;;;;;12.20;72.42;103701.03;5022014;28;20025;-82
2023/12/17 05:07:07;;;;;;;0.32;0.32;;;;;;;12.28;71.83;103695.00;5022185;28;20060;-82
2023/12/17 05:09:33;;;;;;;1.15;0.98;;;;;;;12.09;72.75;103690.22;5017014;28;20030;-81
2023/12/17 05:12:00;;;;;;;0.15;0.15;;;;;;;12.01;72.61;103690.06;5020361;28;20544;-82
2023/12/17 05:14:26;;;;;;;0.57;0.57;;;;;;;12.08;72.58;103691.97;5022768;28;20029;-81
2023/12/17 05:16:53;;;;;;;0.20;0.20;;;;;;;12.03;72.62;103692.78;5028379;28;20030;-82
2023/12/17 05:19:19;;;;;;;0.10;0.10;;;;;;;12.01;73.13;103686.53;5029122;28;20496;-82
2023/12/17 05:21:45;;;;;;;0.75;0.45;;;;;;;11.95;73.90;103688.16;5027735;28;20550;-81
2023/12/17 05:24:11;;;;;;;0.20;0.20;;;;;;;12.07;72.84;103683.97;5027881;28;20061;-80
2023/12/17 05:26:37;;;;;;;0.52;0.52;;;;;;;11.94;74.08;103699.66;5027103;28;20055;-81
2023/12/17 05:29:03;;;;;;;0.50;0.45;;;;;;;11.96;74.01;103697.03;5026359;28;20033;-82
2023/12/17 05:31:30;;;;;;;0.52;0.52;;;;;;;12.02;73.45;103701.59;5028750;28;20431;-82
2023/12/17 05:33:56;;;;;;;1.17;1.17;;;;;;;12.06;73.40;103698.13;5024996;28;20075;-82
2023/12/17 05:36:22;;;;;;;0.45;0.45;;;;;;;12.01;73.46;103684.75;5027350;28;20049;-82
2023/12/17 05:38:48;;;;;;;0.20;0.20;;;;;;;12.00;74.03;103690.03;5026152;28;20093;-81
2023/12/17 05:41:14;;;;;;;0.00;0.00;;;;;;;11.91;73.80;103688.97;5026462;28;20112;-81
2023/12/17 05:43:41;;;;;;;0.10;0.10;;;;;;;11.90;74.11;103700.47;5027931;28;20038;-82
2023/12/17 05:46:07;;;;;;;0.95;0.95;;;;;;;11.85;73.88;103693.25;5025593;28;20038;-82
2023/12/17 05:48:34;;;;;;;4.00;1.38;;;;;;;11.89;73.85;103697.78;5016934;28;20041;-80
2023/12/17 05:51:00;;;;;;;0.30;0.30;;;;;;;11.93;73.40;103692.53;5025830;28;20026;-83
2023/12/17 05:53:26;;;;;;;0.20;0.20;;;;;;;11.83;73.71;103685.25;5029208;28;20493;-81
2023/12/17 05:55:53;;;;;;;0.20;0.20;;;;;;;11.76;74.18;103696.59;5028348;28;20117;-82
2023/12/17 05:58:19;;;;;;;0.55;0.55;;;;;;;11.84;73.63;103689.72;5025407;28;20032;-81
2023/12/17 06:00:45;;;;;;;0.20;0.20;;;;;;;11.91;73.65;103696.94;5021294;28;20535;-82
2023/12/17 06:03:12;;;;;;;0.20;0.20;;;;;;;11.88;73.83;103698.63;5022313;28;20116;-82
2023/12/17 06:05:38;;;;;;;0.10;0.10;;;;;;;11.94;73.25;103699.66;5034384;28;20075;-81
2023/12/17 06:08:05;;;;;;;0.10;0.10;;;;;;;11.78;73.64;103702.88;5030931;28;20033;-83
2023/12/17 06:10:31;;;;;;;0.70;0.43;;;;;;;11.88;72.75;103704.84;5036130;28;20037;-82
2023/12/17 06:12:57;;;;;;;0.20;0.20;;;;;;;11.79;73.58;103704.66;5034082;28;20579;-82
2023/12/17 06:15:23;;;;;;;0.10;0.10;;;;;;;11.84;73.94;103692.38;5041112;28;20018;-81
2023/12/17 06:17:50;;;;;;;0.73;0.73;;;;;;;11.85;73.40;103688.84;5029320;28;20562;-82
2023/12/17 06:20:16;;;;;;;0.10;0.10;;;;;;;11.88;72.95;103694.22;5025566;28;20034;-81
2023/12/17 06:22:42;;;;;;;0.10;0.10;;;;;;;11.90;72.94;103687.19;5025312;28;20037;-82
2023/12/17 06:25:08;;;;;;;2.42;0.60;;;;;;;11.91;72.61;103688.97;5024150;28;20326;-81
2023/12/17 06:27:36;;;;;;;3.03;1.23;;;;;;;11.89;72.63;103685.38;5025122;28;20041;-82
2023/12/17 06:30:03;;;;;;;2.40;1.60;;;;;;;11.88;73.05;103680.91;5027957;28;20049;-82
2023/12/17 06:32:30;;;;;;;0.57;0.57;;;;;;;11.94;72.76;103691.69;5024264;28;20469;-82
2023/12/17 06:34:56;;;;;;;0.70;0.70;;;;;;;11.85;73.50;103701.22;5030029;28;20556;-82
2023/12/17 06:37:22;;;;;;;0.82;0.82;;;;;;;11.76;73.22;103704.56;5029459;28;20041;-82
2023/12/17 06:39:50;;;;;;;0.20;0.20;;;;;;;11.67;73.90;103691.13;5025729;28;20040;-82
2023/12/17 06:42:16;;;;;;;0.85;0.85;;;;;;;11.79;73.54;103712.63;5028968;28;20108;-83
2023/12/17 06:44:42;;;;;;;1.85;1.08;;;;;;;11.72;73.48;103687.69;5026852;28;20032;-83
2023/12/17 06:47:08;;;;;;;0.60;0.60;;;;;;;11.75;73.35;103702.78;5026203;28;20034;-83
2023/12/17 06:49:38;;;;;;;0.40;0.40;;;;;;;11.77;73.13;103701.06;5022262;28;20118;-83
2023/12/17 06:52:04;;;;;;;0.88;0.88;;;;;;;11.79;73.43;103708.19;5021958;28;20038;-83
2023/12/17 06:54:30;;;;;;;4.00;0.75;;;;;;;11.74;73.36;103706.28;5022309;28;20033;-82
2023/12/17 06:56:57;;;;;;;0.57;0.47;;;;;;;11.78;73.34;103697.53;5023437;28;20036;-82
2023/12/17 06:59:23;;;;;;;0.50;0.50;;;;;;;11.76;73.65;103709.88;5020824;28;20038;-82
2023/12/17 07:01:49;;;;;;;0.40;0.40;;;;;;;11.73;73.42;103704.53;5024711;28;20061;-82
2023/12/17 07:04:15;;;;;;;0.98;0.50;;;;;;;11.70;73.15;103697.41;5027301;28;20129;-81
2023/12/17 07:06:41;;;;;;;1.17;0.85;;;;;;;11.64;73.14;103705.22;5026414;28;20033;-81
2023/12/17 07:09:07;;;;;;;0.57;0.57;;;;;;;11.55;73.88;103691.72;5023451;28;20061;-82
2023/12/17 07:11:34;;;;;;;0.10;0.10;;;;;;;11.57;73.82;103688.25;5025707;28;20045;-82
2023/12/17 07:14:00;;;;;;;0.32;0.32;;;;;;;11.63;73.02;103693.69;5024522;28;20053;-81
2023/12/17 07:16:28;;;;;;;2.72;0.77;;;;;;;11.52;73.22;103695.22;5028496;28;20053;-81
2023/12/17 07:18:54;;;;;;;6.03;0.85;;;;;;;11.42;73.80;103694.13;5027808;28;20052;-82
2023/12/17 07:21:20;;;;;;;0.10;0.10;;;;;;;11.46;73.53;103689.78;5034469;28;20037;-82
2023/12/17 07:23:47;;;;;;;0.17;0.17;;;;;;;11.57;73.39;103693.56;5024407;28;20144;-82
2023/12/17 07:26:14;;;;;;;0.43;0.43;;;;;;;11.59;72.92;103705.13;5022252;28;20049;-82
2023/12/17 07:28:40;;;;;;;0.50;0.50;;;;;;;11.59;73.03;103701.56;5025927;28;20064;-83
2023/12/17 07:31:06;;;;;;;0.20;0.20;;;;;;;11.58;72.94;103703.31;5026820;28;20501;-83
2023/12/17 07:33:33;;;;;;;2.63;1.30;;;;;;;11.47;73.54;103703.06;5029303;28;20021;-83
2023/12/17 07:35:59;;;;;;;0.10;0.10;;;;;;;11.44;73.19;103707.41;5026591;28;20028;-83
2023/12/17 07:38:25;;;;;;;0.35;0.35;;;;;;;11.47;73.07;103697.78;5033657;28;20033;-82
2023/12/17 07:40:51;;;;;;;0.93;0.93;;;;;;;11.37;73.26;103694.91;5035250;28;20037;-83
2023/12/17 07:43:17;;;;;;;0.80;0.80;;;;;;;11.45;72.95;103704.81;5036455;28;20057;-82
2023/12/17 07:45:44;;;;;;;1.20;0.47;;;;;;;11.44;72.89;103702.13;5031787;28;20026;-83
2023/12/17 07:48:10;;;;;;;0.90;0.90;;;;;;;11.35;73.18;103707.22;5034469;28;20029;-82
2023/12/17 07:50:36;;;;;;;0.40;0.40;;;;;;;11.20;73.79;103702.47;5030939;28;20034;-83
2023/12/17 07:53:03;;;;;;;0.17;0.17;;;;;;;11.26;73.34;103700.84;5031222;28;20104;-82
2023/12/17 07:55:29;;;;;;;0.50;0.50;;;;;;;11.19;73.46;103703.31;5027781;28;20298;-83
2023/12/17 07:57:55;;;;;;;0.45;0.45;;;;;;;11.25;73.11;103707.03;5024795;28;20030;-83
2023/12/17 08:00:21;;;;;;;0.20;0.20;;;;;;;11.23;72.96;103710.50;5029977;28;20061;-83
2023/12/17 08:02:48;;;;;;;0.20;0.20;;;;;;;11.10;72.88;103707.56;5027858;28;20034;-83
2023/12/17 08:05:14;;;;;;;3.83;0.95;;;;;;;11.23;72.99;103716.72;5020201;28;20021;-82
2023/12/17 08:07:55;;;;;;;0.28;0.28;;;;;;;11.26;72.81;103718.53;5029806;28;20089;-84
2023/12/17 08:10:21;;;;;;;0.55;0.55;;;;;;;11.21;72.62;103713.09;5020267;28;20112;-83
2023/12/17 08:12:48;;;;;;;1.00;0.90;;;;;;;11.13;72.62;103723.53;5029230;28;20026;-83
2023/12/17 08:15:14;;;;;;;0.30;0.30;;;;;;;11.04;72.48;103738.34;5028311;28;20022;-82
2023/12/17 08:17:40;;;;;;;0.10;0.10;;;;;;;11.21;73.00;103725.50;5030911;28;20033;-83
2023/12/17 08:20:07;;;;;;;0.28;0.28;;;;;;;11.20;72.70;103735.19;5029054;28;20283;-83
2023/12/17 08:22:34;;;;;;;0.30;0.30;;;;;;;11.07;73.12;103735.78;5027009;28;20029;-82
2023/12/17 08:25:00;;;;;;;0.35;0.35;;;;;;;11.00;73.10;103742.66;5024027;28;20108;-81
2023/12/17 08:27:26;;;;;;;4.60;0.95;;;;;;;10.83;73.62;103742.28;5034076;28;20033;-82
2023/12/17 08:29:52;;;;;;;0.43;0.40;;;;;;;10.95;72.99;103736.34;5021765;28;20412;-82
2023/12/17 08:32:20;;;;;;;0.20;0.20;;;;;;;10.92;73.37;103739.84;5021387;28;20034;-82
2023/12/17 08:34:47;;;;;;;0.20;0.20;;;;;;;10.89;73.16;103734.47;5022531;28;20018;-82
2023/12/17 08:37:13;;;;;;;3.92;1.33;;;;;;;10.80;73.17;103735.13;5024010;28;20116;-81
2023/12/17 08:39:39;;;;;;;0.55;0.55;;;;;;;10.75;73.52;103734.09;5018352;28;20041;-83
2023/12/17 08:42:05;;;;;;;1.42;1.33;;;;;;;10.91;73.22;103732.72;5021948;28;20068;-82
2023/12/17 08:44:35;;;;;;;0.10;0.10;;;;;;;10.84;72.85;103730.78;5031014;28;20025;-83
2023/12/17 08:47:02;;;;;;;0.10;0.10;;;;;;;10.88;73.13;103727.38;5018822;28;20116;-83
2023/12/17 08:49:28;;;;;;;0.20;0.20;;;;;;;10.91;73.09;103727.44;5021791;28;20026;-82
2023/12/17 08:51:55;;;;;;;0.30;0.30;;;;;;;10.91;73.27;103727.44;5022187;28;20514;-83
2023/12/17 08:54:21;;;;;;;0.15;0.15;;;;;;;10.89;73.42;103733.56;5028457;28;20047;-83
2023/12/17 08:56:47;;;;;;;1.52;1.50;;;;;;;10.82;73.30;103727.22;5028313;28;20536;-83
2023/12/17 08:59:13;;;;;;;0.35;0.35;;;;;;;10.66;73.58;103725.91;5024827;28;20057;-82
2023/12/17 09:01:40;;;;;;;1.95;1.23;;;;;;;10.83;72.78;103715.75;5032190;28;20025;-83
2023/12/17 09:04:07;;;;;;;0.50;0.50;;;;;;;10.77;73.22;103719.13;5023270;28;20030;-83
2023/12/17 09:06:44;;;;;;;2.55;2.35;;;;;;;10.77;72.95;103728.84;5025919;28;20033;-81
2023/12/17 09:09:12;;;;;;;1.80;1.65;;;;;;;10.63;72.75;103721.44;5029084;28;20045;-81
2023/12/17 09:11:38;;;;;;;0.40;0.40;;;;;;;10.67;72.38;103718.00;5038019;28;20125;-83
2023/12/17 09:14:07;;;;;;;1.67;0.93;;;;;;;10.68;72.89;103727.75;5032323;28;20033;-83
2023/12/17 09:16:33;;;;;;;0.63;0.63;;;;;;;10.71;72.38;103728.69;5034859;28;20037;-83
2023/12/17 09:19:00;;;;;;;0.25;0.25;;;;;;;10.78;72.12;103726.22;5024550;28;20029;-82
2023/12/17 09:21:26;;;;;;;0.20;0.20;;;;;;;10.79;71.88;103748.34;5025949;28;20163;-82
2023/12/17 09:23:52;;;;;;;0.20;0.20;;;;;;;10.62;72.30;103732.88;5028715;28;20038;-82
2023/12/17 09:26:19;;;;;;;0.40;0.40;;;;;;;10.73;72.13;103737.56;5022193;28;20045;-83
2023/12/17 09:28:45;;;;;;;0.40;0.40;;;;;;;10.76;72.16;103745.63;5022046;28;20029;-84
2023/12/17 09:31:12;;;;;;;0.75;0.75;;;;;;;10.94;71.67;103742.53;5023493;28;20038;-82
2023/12/17 09:33:38;;;;;;;0.40;0.40;;;;;;;10.99;71.41;103740.88;5026949;28;20034;-80
2023/12/17 09:36:07;;;;;;;0.15;0.15;;;;;;;11.08;71.18;103750.81;5024470;28;20026;-79
2023/12/17 09:38:33;;;;;;;0.20;0.20;;;;;;;11.14;70.96;103740.34;5024457;28;20030;-79
2023/12/17 09:40:59;;;;;;;0.63;0.63;;;;;;;10.92;71.75;103753.09;5021056;28;20045;-83
2023/12/17 09:43:26;;;;;;;0.20;0.20;;;;;;;10.94;71.47;103753.13;5020846;28;20467;-83
2023/12/17 09:45:52;;;;;;;0.77;0.77;;;;;;;10.97;71.86;103748.81;5023147;28;20022;-82
2023/12/17 09:48:19;;;;;;;1.77;1.67;;;;;;;10.98;71.41;103763.88;5026378;28;20089;-80
2023/12/17 09:50:45;;;;;;;6.00;2.45;;;;;;;10.64;71.46;103765.66;5022670;28;20026;-81
2023/12/17 09:53:12;;;;;;;0.95;0.90;;;;;;;10.81;71.01;103754.59;5028247;28;20022;-80
2023/12/17 09:55:38;;;;;;;0.10;0.10;;;;;;;10.70;71.59;103749.00;5028154;28;20566;-80
2023/12/17 09:58:05;;;;;;;0.70;0.70;;;;;;;10.88;70.72;103743.28;5028102;28;20056;-79
2023/12/17 10:00:32;;;;;;;0.10;0.10;;;;;;;10.81;71.13;103751.94;5026557;28;20025;-80
2023/12/17 10:03:06;;;;;;;0.75;0.75;;;;;;;10.90;71.29;103773.38;5027560;28;20022;-81
2023/12/17 10:05:33;;;;;;;0.20;0.20;;;;;;;10.89;70.64;103754.78;5028717;28;20026;-81
2023/12/17 10:08:00;;;;;;;1.35;1.25;;;;;;;10.98;70.68;103745.28;5026129;28;20378;-81
2023/12/17 10:10:27;;;;;;;0.38;0.38;;;;;;;11.01;70.53;103749.78;5028334;28;20650;-80
2023/12/17 10:12:53;;;;;;;0.80;0.80;;;;;;;10.96;70.64;103751.44;5023321;28;20045;-81
2023/12/17 10:15:20;;;;;;;0.30;0.30;;;;;;;11.00;70.94;103740.94;5025386;28;20080;-80
2023/12/17 10:17:47;;;;;;;3.08;1.13;;;;;;;11.02;71.18;103740.09;5027999;28;20021;-80
2023/12/17 10:20:20;;;;;;;1.25;1.25;;;;;;;11.06;70.83;103728.69;5026608;28;20018;-82
2023/12/17 10:22:59;;;;;;;1.13;1.13;;;;;;;11.08;70.26;103724.28;5024300;28;20025;-80
2023/12/17 10:25:25;;;;;;;0.85;0.85;;;;;;;11.11;70.51;103730.56;5023899;28;20022;-80
2023/12/17 10:27:57;;;;;;;0.10;0.10;;;;;;;11.16;70.08;103723.63;5024316;28;20056;-80
2023/12/17 10:30:29;;;;;;;0.93;0.77;;;;;;;10.91;70.35;103730.06;5031229;28;20022;-80
2023/12/17 10:32:59;;;;;;;0.35;0.35;;;;;;;11.06;69.97;103715.41;5022459;28;20029;-79
2023/12/17 10:35:26;;;;;;;0.20;0.20;;;;;;;11.03;69.78;103712.66;5022335;28;20026;-79
2023/12/17 10:37:59;;;;;;;0.40;0.40;;;;;;;10.97;69.98;103711.66;5024023;28;20030;-79
2023/12/17 10:40:27;;;;;;;0.77;0.77;;;;;;;11.02;69.50;103703.81;5028363;28;20041;-79
2023/12/17 10:42:56;;;;;;;1.77;1.67;;;;;;;10.99;70.12;103699.34;5028624;28;20476;-81
2023/12/17 10:45:23;;;;;;;0.35;0.35;;;;;;;11.03;69.54;103691.44;5026787;28;20062;-79
2023/12/17 10:47:53;;;;;;;0.10;0.10;;;;;;;10.94;69.58;103687.72;5025517;28;20033;-79
2023/12/17 10:50:20;;;;;;;1.27;1.27;;;;;;;11.03;69.54;103688.78;5022447;28;20034;-80
2023/12/17 10:52:47;;;;;;;0.45;0.45;;;;;;;11.10;69.58;103680.13;5021029;28;20021;-79
2023/12/17 10:55:15;;;;;;;5.15;1.20;;;;;;;11.11;69.45;103684.56;5024791;28;20034;-79
2023/12/17 10:57:52;;;;;;;0.43;0.43;;;;;;;11.06;69.68;103675.59;5025219;28;20404;-79
2023/12/17 11:00:23;;;;;;;2.80;2.42;;;;;;;10.93;69.75;103672.66;5020672;28;20033;-79
2023/12/17 11:02:54;;;;;;;0.52;0.52;;;;;;;10.92;69.83;103675.28;5023807;28;20036;-78
2023/12/17 11:05:20;;;;;;;0.13;0.13;;;;;;;10.98;69.27;103683.41;5019449;28;20599;-79
2023/12/17 11:07:46;;;;;;;0.13;0.13;;;;;;;10.94;69.65;103668.25;5025720;28;20033;-80
2023/12/17 11:10:15;;;;;;;0.73;0.73;;;;;;;10.96;69.62;103664.75;5015341;28;20026;-81
2023/12/17 11:12:44;;;;;;;0.20;0.20;;;;;;;11.02;68.98;103664.03;5023158;28;20484;-80
2023/12/17 11:15:12;;;;;;;0.80;0.80;;;;;;;10.99;68.86;103667.50;5021551;28;20072;-81
2023/12/17 11:17:39;;;;;;;0.90;0.90;;;;;;;10.91;69.15;103650.50;5022503;28;20468;-80
2023/12/17 11:20:07;;;;;;;0.10;0.10;;;;;;;10.98;69.57;103647.13;5020036;28;20519;-80
2023/12/17 11:22:36;;;;;;;0.40;0.40;;;;;;;11.07;69.00;103649.09;5022439;28;20064;-80